Flight Track Log - Related Links

Times and Time Zones

All times are in EDT time to prevent confusion due to time zone crossing. See the SKW4968 flight status page for this flight to view local times or setup timezone preferences in your user account.

Time Position Orientation Groundspeed Altitude Reporting Facility
EDT Latitude Longitude Course Direction KTS MPH feet Rate Location/Type
Wed 12:42:35 PM 29.5175 -98.4525 90° East 147 169 2,000  Level Houston Center
Wed 12:43:45 PM 29.4781 -98.3983 130° Southeast 197 227 3,900 1,869 Climbing Houston Center
Wed 12:44:37 PM 29.4625 -98.3344 106° East 283 326 5,800 2,304 Climbing Houston Center
Wed 12:45:00 PM 29.6412 -98.0167 North  Level FlightAware Approximate
Wed 12:45:37 PM 29.4986 -98.2483 64° Northeast 318 366 8,200  Level Houston Center
Wed 12:46:00 PM 29.6500 -97.9074 90° East  Level FlightAware Approximate
Wed 12:46:51 PM 29.5422 -98.1322 67° East 320 368 11,200  Level Houston Center
Wed 12:47:00 PM 29.6500 -97.7880 90° East  Level FlightAware Approximate
Wed 12:47:53 PM 29.5814 -98.0244 67° East 342 394 13,500  Level Houston Center
Wed 12:48:55 PM 29.6192 -97.9200 67° East 353 406 15,500 1,839 Climbing Houston Center
Wed 12:49:57 PM 29.6544 -97.8167 69° East 372 428 17,300 1,790 Climbing Houston Center
Wed 12:50:59 PM 29.6547 -97.6931 90° East 384 442 19,200 1,790 Climbing Houston Center
Wed 12:52:01 PM 29.6539 -97.5686 90° East 386 444 21,000 1,839 Climbing Houston Center
Wed 12:53:03 PM 29.6425 -97.4175 95° East 395 455 23,000 1,452 Climbing Houston Center
Wed 12:54:05 PM 29.6319 -97.2875 95° East 406 467 24,000 484 Climbing Houston Center
Wed 12:55:07 PM 29.6231 -97.1519 94° East 420 483 24,000  Level Houston Center
Wed 12:56:09 PM 29.6117 -97.0078 95° East 447 514 24,000 -48 Level Houston Center
Wed 12:57:11 PM 29.5992 -96.8528 95° East 476 548 23,900 -1,403 Descending Houston Center
Wed 12:58:13 PM 29.5864 -96.6989 95° East 478 550 21,100 -3,000 Descending Houston Center
Wed 12:59:15 PM 29.5750 -96.5533 95° East 458 527 17,700 -3,580 Descending Houston Center
Wed 01:00:12 PM 29.5611 -96.4000 96° East 427 491 14,000 -3,630 Descending Houston Center
Wed 01:00:36 PM 29.5569 -96.3503 95° East 425 489 12,800 -2,636 Descending Houston Center
Wed 01:01:18 PM 29.5511 -96.2608 94° East 408 470 11,100 -2,557 Descending Houston Center
Wed 01:01:37 PM 29.5486 -96.2264 95° East 382 440 10,200 -1,065 Descending Houston Center
Wed 01:02:20 PM 29.5575 -96.1478 83° East 366 421 10,000 -393 Descending Houston Center
Wed 01:02:38 PM 29.5689 -96.1208 64° Northeast 318 366 9,800 -1,065 Descending Houston Center
Wed 01:03:22 PM 29.5956 -96.0608 63° Northeast 312 359 8,900 -806 Descending Houston Center
Wed 01:03:45 PM 29.5961 -96.0217 89° East 266 306 8,900  Level Houston Center
Wed 01:04:24 PM 29.6150 -95.9750 65° Northeast 276 318 8,900  Level Houston Center
Wed 01:04:46 PM 29.6417 -95.9661 16° North 264 304 8,900  Level Houston Center
Wed 01:05:26 PM 29.6875 -95.9531 14° North 275 316 8,900 109 Level Houston Center
Wed 01:05:41 PM 29.7092 -95.9464 15° North 275 316 9,000 -290 Climbing Houston Center
Wed 01:06:28 PM 29.7614 -95.9308 14° North 275 316 8,600 -787 Descending Houston Center
Wed 01:07:43 PM 29.8506 -95.8844 24° Northeast 276 318 7,400 -976 Descending Houston Center
Wed 01:08:31 PM 29.8967 -95.8508 32° Northeast 274 315 6,600 -982 Descending Houston Center
Wed 01:09:33 PM 29.9550 -95.8017 36° Northeast 270 311 5,600 -823 Descending Houston Center
Wed 01:10:35 PM 29.9914 -95.7339 58° Northeast 252 290 4,900 -339 Descending Houston Center
Wed 01:11:37 PM 29.9925 -95.6478 89° East 228 262 4,900 -500 Level Houston Center
Wed 01:12:35 PM 29.9914 -95.5789 91° East 228 262 3,900 -1,073 Descending Houston Center
Wed 01:13:40 PM 29.9947 -95.5106 87° East 212 244 2,700 -1,108 Descending Houston Center

Login

Don't have an account? Register now (free) for customized features, flight alerts, and more!